createdAt,value
2014-08-20T00:00:07.171Z,17.64
2014-08-20T00:01:11.846Z,17.49
2014-08-20T00:02:16.535Z,17.45
2014-08-20T00:03:21.209Z,17.36
2014-08-20T00:04:25.898Z,17.58
2014-08-20T00:05:30.573Z,17.74
2014-08-20T00:06:35.262Z,17.69
2014-08-20T00:07:40.232Z,17.44
2014-08-20T00:08:45.219Z,17.41
2014-08-20T00:09:49.908Z,17.42
2014-08-20T00:10:54.582Z,17.52
2014-08-20T00:11:59.568Z,17.62
2014-08-20T00:13:04.540Z,17.49
2014-08-20T00:14:09.527Z,17.53
2014-08-20T00:15:14.496Z,17.61
2014-08-20T00:16:19.187Z,17.32
2014-08-20T00:17:23.861Z,17.54
2014-08-20T00:18:28.550Z,17.5
2014-08-20T00:19:33.224Z,17.32
2014-08-20T00:20:37.914Z,17.04
2014-08-20T00:21:42.586Z,17.16
2014-08-20T00:22:47.277Z,17.06
2014-08-20T00:23:51.951Z,17.27
2014-08-20T00:24:56.922Z,17.29
2014-08-20T00:26:01.611Z,17.32
2014-08-20T00:27:06.301Z,17.28
2014-08-20T00:28:10.974Z,17.33
2014-08-20T00:29:15.961Z,17.18
2014-08-20T00:30:20.636Z,17.17
2014-08-20T00:31:25.324Z,16.9
2014-08-20T00:32:30.592Z,16.85
2014-08-20T00:33:35.282Z,16.96
2014-08-20T00:34:40.252Z,17.09
2014-08-20T00:35:44.942Z,17.16
2014-08-20T00:36:49.912Z,16.94
2014-08-20T00:37:54.586Z,16.84
2014-08-20T00:38:59.277Z,16.8
2014-08-20T00:40:03.951Z,16.78
2014-08-20T00:41:08.642Z,16.79
2014-08-20T00:42:13.315Z,16.82
2014-08-20T00:43:18.004Z,16.96
2014-08-20T00:44:22.679Z,16.93
2014-08-20T00:45:27.369Z,17.14
2014-08-20T00:46:32.043Z,16.8
2014-08-20T00:47:37.013Z,17.03
2014-08-20T00:48:42.000Z,16.93
2014-08-20T00:49:46.689Z,16.95
2014-08-20T00:50:51.659Z,17
2014-08-20T00:51:56.349Z,16.99
2014-08-20T00:53:01.023Z,17.02
2014-08-20T00:54:05.713Z,17.14
2014-08-20T00:55:10.387Z,17.33
2014-08-20T00:56:15.075Z,17.11
2014-08-20T00:57:19.750Z,17.04
2014-08-20T00:58:24.440Z,16.93
2014-08-20T00:59:29.114Z,17.06
2014-08-20T01:00:34.100Z,17.07
2014-08-20T01:01:39.085Z,17.04
2014-08-20T01:02:44.354Z,17.15
2014-08-20T01:03:49.043Z,16.87
2014-08-20T01:04:53.717Z,16.61
2014-08-20T01:05:58.407Z,16.51
2014-08-20T01:07:03.378Z,16.56
2014-08-20T01:08:08.364Z,16.79
2014-08-20T01:09:13.038Z,16.92
2014-08-20T01:10:18.024Z,17
2014-08-20T01:11:22.698Z,16.96
2014-08-20T01:12:27.372Z,17.01
2014-08-20T01:13:32.046Z,16.96
2014-08-20T01:14:36.735Z,16.62
2014-08-20T01:15:41.409Z,16.44
2014-08-20T01:16:46.083Z,16.71
2014-08-20T01:17:50.773Z,16.93
2014-08-20T01:18:55.447Z,17.04
2014-08-20T01:20:00.136Z,16.87
2014-08-20T01:21:05.107Z,16.95
2014-08-20T01:22:09.797Z,17.02
2014-08-20T01:23:14.470Z,16.77
2014-08-20T01:24:19.457Z,16.65
2014-08-20T01:25:24.130Z,16.86
2014-08-20T01:26:28.821Z,16.52
2014-08-20T01:27:33.494Z,16.31
2014-08-20T01:28:38.482Z,16.25
2014-08-20T01:29:43.157Z,16.23
2014-08-20T01:30:47.846Z,16.24
2014-08-20T01:31:52.535Z,16.64
2014-08-20T01:32:57.210Z,16.82
2014-08-20T01:34:01.898Z,16.8
2014-08-20T01:35:06.886Z,16.88
2014-08-20T01:36:11.856Z,17.07
2014-08-20T01:37:16.843Z,16.74
2014-08-20T01:38:21.517Z,16.84
2014-08-20T01:39:26.206Z,16.7
2014-08-20T01:40:30.879Z,16.8
2014-08-20T01:41:35.554Z,17
2014-08-20T01:42:40.540Z,16.96
2014-08-20T01:43:45.214Z,16.92
2014-08-20T01:44:50.497Z,16.78
2014-08-20T01:45:55.171Z,16.98
2014-08-20T01:46:59.861Z,16.88
2014-08-20T01:48:04.535Z,16.47
2014-08-20T01:49:09.224Z,16.52
2014-08-20T01:50:14.211Z,16.49
2014-08-20T01:51:18.884Z,16.54
2014-08-20T01:52:23.574Z,16.36
2014-08-20T01:53:28.248Z,16.66
2014-08-20T01:54:32.938Z,16.64
2014-08-20T01:55:37.611Z,16.84
2014-08-20T01:56:42.285Z,16.82
2014-08-20T01:57:46.976Z,16.7
2014-08-20T01:58:51.946Z,16.89
2014-08-20T01:59:56.636Z,16.74
2014-08-20T02:01:01.607Z,16.92
2014-08-20T02:02:06.295Z,17.02
2014-08-20T02:03:11.267Z,16.9
2014-08-20T02:04:15.956Z,16.7
2014-08-20T02:05:20.646Z,16.43
2014-08-20T02:06:25.617Z,16.47
2014-08-20T02:07:30.306Z,16.72
2014-08-20T02:08:34.996Z,16.61
2014-08-20T02:09:39.669Z,16.76
2014-08-20T02:10:44.656Z,16.72
2014-08-20T02:11:49.347Z,16.81
2014-08-20T02:12:54.062Z,16.7
2014-08-20T02:13:58.108Z,16.64
2014-08-20T02:15:03.120Z,16.75
2014-08-20T02:16:08.153Z,16.71
2014-08-20T02:17:12.891Z,16.84
2014-08-20T02:18:17.582Z,16.72
2014-08-20T02:19:22.287Z,16.62
2014-08-20T02:20:26.977Z,16.48
2014-08-20T02:21:31.977Z,16.6
2014-08-20T02:22:36.662Z,16.62
2014-08-20T02:23:41.355Z,16.64
2014-08-20T02:24:46.035Z,16.42
2014-08-20T02:25:50.730Z,16.33
2014-08-20T02:26:55.409Z,16.6
2014-08-20T02:28:00.100Z,16.71
2014-08-20T02:29:04.780Z,16.72
2014-08-20T02:30:09.754Z,16.84
2014-08-20T02:31:14.445Z,16.82
2014-08-20T02:32:19.416Z,16.86
2014-08-20T02:33:24.107Z,16.7
2014-08-20T02:34:28.781Z,16.92
2014-08-20T02:35:33.472Z,16.82
2014-08-20T02:36:38.146Z,16.74
2014-08-20T02:37:42.836Z,16.65
2014-08-20T02:38:47.511Z,16.65
2014-08-20T02:39:52.498Z,16.62
2014-08-20T02:40:57.469Z,16.66
2014-08-20T02:42:02.142Z,16.6
2014-08-20T02:43:06.832Z,16.48
2014-08-20T02:44:11.506Z,16.26
2014-08-20T02:45:16.195Z,16.31
2014-08-20T02:46:20.869Z,16.36
2014-08-20T02:47:25.559Z,16.6
2014-08-20T02:48:29.545Z,16.59
2014-08-20T02:49:34.532Z,16.37
2014-08-20T02:50:39.518Z,16.57
2014-08-20T02:51:44.489Z,16.59
2014-08-20T02:52:49.179Z,16.51
2014-08-20T02:53:53.868Z,16.59
2014-08-20T02:54:58.542Z,16.48
2014-08-20T02:56:03.528Z,16.46
2014-08-20T02:57:08.202Z,16.59
2014-08-20T02:58:12.892Z,16.56
2014-08-20T02:59:17.566Z,16.62
2014-08-20T03:00:22.255Z,16.62
2014-08-20T03:01:26.945Z,16.78
2014-08-20T03:02:31.916Z,16.64
2014-08-20T03:03:36.902Z,16.62
2014-08-20T03:04:41.576Z,16.63
2014-08-20T03:05:46.250Z,16.78
2014-08-20T03:06:50.939Z,16.72
2014-08-20T03:07:55.910Z,16.38
2014-08-20T03:09:00.599Z,16.4
2014-08-20T03:10:05.275Z,16.42
2014-08-20T03:11:09.965Z,16.66
2014-08-20T03:12:14.639Z,16.47
2014-08-20T03:13:19.313Z,16.32
2014-08-20T03:14:24.596Z,16.35
2014-08-20T03:15:29.567Z,16.35
2014-08-20T03:16:34.257Z,16.64
2014-08-20T03:17:38.930Z,16.64
2014-08-20T03:18:43.604Z,16.64
2014-08-20T03:19:48.293Z,16.65
2014-08-20T03:20:52.967Z,16.82
2014-08-20T03:21:57.954Z,16.82
2014-08-20T03:23:02.924Z,16.87
2014-08-20T03:24:07.614Z,16.96
2014-08-20T03:25:12.303Z,16.82
2014-08-20T03:26:16.993Z,16.31
2014-08-20T03:27:21.668Z,16.55
2014-08-20T03:28:26.357Z,16.35
2014-08-20T03:29:31.030Z,16.6
2014-08-20T03:30:35.721Z,16.64
2014-08-20T03:31:40.394Z,16.47
2014-08-20T03:32:45.381Z,16.65
2014-08-20T03:33:50.055Z,16.56
2014-08-20T03:34:54.743Z,16.6
2014-08-20T03:35:59.715Z,16.54
2014-08-20T03:37:04.404Z,16.38
2014-08-20T03:38:09.375Z,16.48
2014-08-20T03:39:14.065Z,16.29
2014-08-20T03:40:18.739Z,16.38
2014-08-20T03:41:22.741Z,16.35
2014-08-20T03:42:27.414Z,15.98
2014-08-20T03:43:32.401Z,15.72
2014-08-20T03:44:37.075Z,15.68
2014-08-20T03:45:41.750Z,15.73
2014-08-20T03:46:46.439Z,15.8
2014-08-20T03:47:51.112Z,15.93
2014-08-20T03:48:56.098Z,15.66
2014-08-20T03:50:00.772Z,15.66
2014-08-20T03:51:05.446Z,15.44
2014-08-20T03:52:10.136Z,15.63
2014-08-20T03:53:14.809Z,15.93
2014-08-20T03:54:19.499Z,15.97
2014-08-20T03:55:24.173Z,16.18
2014-08-20T03:56:28.847Z,15.73
2014-08-20T03:57:33.833Z,15.46
2014-08-20T03:58:38.523Z,15.32
2014-08-20T03:59:43.493Z,15.26
2014-08-20T04:00:48.186Z,15.38
2014-08-20T04:01:52.859Z,15.37
2014-08-20T04:02:57.549Z,15.25
2014-08-20T04:04:02.223Z,15.78
2014-08-20T04:05:06.912Z,15.91
2014-08-20T04:06:11.585Z,15.76
2014-08-20T04:07:16.275Z,15.51
2014-08-20T04:08:20.964Z,15.22
2014-08-20T04:09:25.639Z,15.1
2014-08-20T04:10:30.313Z,14.97
2014-08-20T04:11:35.002Z,15.09
2014-08-20T04:12:39.677Z,15.03
2014-08-20T04:13:44.366Z,14.98
2014-08-20T04:14:49.337Z,14.82
2014-08-20T04:15:54.010Z,14.86
2014-08-20T04:16:58.700Z,14.86
2014-08-20T04:18:03.671Z,14.93
2014-08-20T04:19:08.361Z,14.85
2014-08-20T04:20:13.034Z,14.8
2014-08-20T04:21:17.724Z,14.81
2014-08-20T04:22:22.398Z,14.88
2014-08-20T04:23:27.088Z,14.93
2014-08-20T04:24:32.058Z,14.88
2014-08-20T04:25:36.748Z,14.9
2014-08-20T04:26:41.421Z,14.93
2014-08-20T04:27:46.095Z,14.92
2014-08-20T04:28:51.082Z,14.94
2014-08-20T04:29:55.756Z,14.86
2014-08-20T04:31:00.727Z,14.89
2014-08-20T04:32:05.417Z,14.98
2014-08-20T04:33:10.091Z,14.88
2014-08-20T04:34:14.796Z,14.96
2014-08-20T04:35:19.766Z,14.85
2014-08-20T04:36:24.753Z,14.87
2014-08-20T04:37:29.724Z,14.76
2014-08-20T04:38:34.710Z,14.9
2014-08-20T04:39:39.384Z,14.81
2014-08-20T04:40:44.370Z,14.83
2014-08-20T04:41:49.045Z,14.77
2014-08-20T04:42:54.030Z,14.9
2014-08-20T04:43:58.705Z,14.79
2014-08-20T04:45:03.378Z,15
2014-08-20T04:46:08.366Z,15.32
2014-08-20T04:47:13.039Z,15.18
2014-08-20T04:48:17.713Z,14.96
2014-08-20T04:49:22.403Z,14.8
2014-08-20T04:50:27.374Z,14.68
2014-08-20T04:51:32.063Z,14.7
2014-08-20T04:52:37.034Z,14.78
2014-08-20T04:53:41.724Z,14.79
2014-08-20T04:54:46.695Z,14.82
2014-08-20T04:55:51.369Z,15.2
2014-08-20T04:56:56.057Z,15.37
2014-08-20T04:58:00.731Z,14.99
2014-08-20T04:59:05.405Z,14.88
2014-08-20T05:00:10.393Z,14.78
2014-08-20T05:01:15.362Z,14.72
2014-08-20T05:02:20.036Z,14.7
2014-08-20T05:03:24.726Z,14.72
2014-08-20T05:04:29.400Z,14.59
2014-08-20T05:05:34.370Z,14.6
2014-08-20T05:06:39.357Z,15.06
2014-08-20T05:07:44.031Z,14.97
2014-08-20T05:08:48.704Z,14.94
2014-08-20T05:09:53.395Z,14.95
2014-08-20T05:10:58.069Z,14.96
2014-08-20T05:12:02.743Z,14.82
2014-08-20T05:13:07.431Z,14.73
2014-08-20T05:14:12.122Z,14.76
2014-08-20T05:15:16.811Z,14.9
2014-08-20T05:16:21.485Z,14.92
2014-08-20T05:17:26.175Z,14.86
2014-08-20T05:18:30.866Z,15
2014-08-20T05:19:35.539Z,14.9
2014-08-20T05:20:40.525Z,14.91
2014-08-20T05:21:45.199Z,14.9
2014-08-20T05:22:49.890Z,15.04
2014-08-20T05:23:54.564Z,15.3
2014-08-20T05:24:59.534Z,15.66
2014-08-20T05:26:04.224Z,15.92
2014-08-20T05:27:09.225Z,16.26
2014-08-20T05:28:14.197Z,16.83
2014-08-20T05:29:19.166Z,17.89
2014-08-20T05:30:23.857Z,19.12
2014-08-20T05:31:28.531Z,20.56
2014-08-20T05:32:33.204Z,21.67
2014-08-20T05:33:38.191Z,22.56
2014-08-20T05:34:43.177Z,22.44
2014-08-20T05:35:48.147Z,23.38
2014-08-20T05:36:52.838Z,23.79
2014-08-20T05:37:57.511Z,24.08
2014-08-20T05:39:02.201Z,24.91
2014-08-20T05:40:06.876Z,25.37
2014-08-20T05:41:11.564Z,25.69
2014-08-20T05:42:16.239Z,25.96
2014-08-20T05:43:20.929Z,26.02
2014-08-20T05:44:25.617Z,27.02
2014-08-20T05:45:30.292Z,26.93
2014-08-20T05:46:34.982Z,27.12
2014-08-20T05:47:39.967Z,27.74
2014-08-20T05:48:44.657Z,27.72
2014-08-20T05:49:49.644Z,27.48
2014-08-20T05:50:54.332Z,28.6
2014-08-20T05:51:59.007Z,29.11
2014-08-20T05:53:03.712Z,29.67
2014-08-20T05:54:08.402Z,30.67
2014-08-20T05:55:13.091Z,29.83
2014-08-20T05:56:18.078Z,29.93
2014-08-20T05:57:23.064Z,30.74
2014-08-20T05:58:27.769Z,30.71
2014-08-20T05:59:32.459Z,30.16
2014-08-20T06:00:37.148Z,31.03
2014-08-20T06:01:41.838Z,31.35
2014-08-20T06:02:46.824Z,31.98
2014-08-20T06:03:51.529Z,31.67
2014-08-20T06:04:56.516Z,28.09
2014-08-20T06:06:01.205Z,28.08
2014-08-20T06:07:05.895Z,30.13
2014-08-20T06:08:10.584Z,31.08
2014-08-20T06:09:15.275Z,31.74
2014-08-20T06:10:19.964Z,31.88
2014-08-20T06:11:24.654Z,31.18
2014-08-20T06:12:29.343Z,31.79
2014-08-20T06:13:34.033Z,32.56
2014-08-20T06:14:38.722Z,31.04
2014-08-20T06:15:43.412Z,28.78
2014-08-20T06:16:48.101Z,30.56
2014-08-20T06:17:52.791Z,29.41
2014-08-20T06:18:57.482Z,29.99
2014-08-20T06:20:02.171Z,31.2
2014-08-20T06:21:06.861Z,30.63
2014-08-20T06:22:11.566Z,27.65
2014-08-20T06:23:16.255Z,25.46
2014-08-20T06:24:20.945Z,26.21
2014-08-20T06:25:25.635Z,29.1
2014-08-20T06:26:30.621Z,31.49
2014-08-20T06:27:35.311Z,31.87
2014-08-20T06:28:40.000Z,31.76
2014-08-20T06:29:44.986Z,31.6
2014-08-20T06:30:49.676Z,33.2
2014-08-20T06:31:54.365Z,31.86
2014-08-20T06:32:59.352Z,30.04
2014-08-20T06:34:04.041Z,31.92
2014-08-20T06:35:08.731Z,32.7
2014-08-20T06:36:13.436Z,32.91
2014-08-20T06:37:18.126Z,33.78
2014-08-20T06:38:22.815Z,33.76
2014-08-20T06:39:27.802Z,34.15
2014-08-20T06:40:32.491Z,33.89
2014-08-20T06:41:37.197Z,32.84
2014-08-20T06:42:41.885Z,33.79
2014-08-20T06:43:46.575Z,34.62
2014-08-20T06:44:51.280Z,34.83
2014-08-20T06:45:55.971Z,35.9
2014-08-20T06:47:00.676Z,36.17
2014-08-20T06:48:05.364Z,35.77
2014-08-20T06:49:10.054Z,37.06
2014-08-20T06:50:14.759Z,36.23
2014-08-20T06:51:19.448Z,36.15
2014-08-20T06:52:24.139Z,36.71
2014-08-20T06:53:28.828Z,38.18
2014-08-20T06:54:33.532Z,36.82
2014-08-20T06:55:38.223Z,34.89
2014-08-20T06:56:42.912Z,34.49
2014-08-20T06:57:47.602Z,32.64
2014-08-20T06:58:52.291Z,30.65
2014-08-20T06:59:56.981Z,29.55
2014-08-20T07:01:01.670Z,28.46
2014-08-20T07:02:06.376Z,26.98
2014-08-20T07:03:11.081Z,26.77
2014-08-20T07:04:15.770Z,26.78
2014-08-20T07:05:20.460Z,26.28
2014-08-20T07:06:25.149Z,25.21
2014-08-20T07:07:30.137Z,24.54
2014-08-20T07:08:34.825Z,24.28
2014-08-20T07:09:39.516Z,24.56
2014-08-20T07:10:44.502Z,24.11
2014-08-20T07:11:49.190Z,23.86
2014-08-20T07:12:53.880Z,24.04
2014-08-20T07:13:58.569Z,23.67
2014-08-20T07:15:03.244Z,23.91
2014-08-20T07:16:07.949Z,23.2
2014-08-20T07:17:12.640Z,22.62
2014-08-20T07:18:17.612Z,22.4
2014-08-20T07:19:22.300Z,22.54
2014-08-20T07:20:26.990Z,21.8
2014-08-20T07:21:31.976Z,21.67
2014-08-20T07:22:36.650Z,22.06
2014-08-20T07:23:41.340Z,22.52
2014-08-20T07:24:46.326Z,22.82
2014-08-20T07:25:51.000Z,22.97
2014-08-20T07:26:55.986Z,22.09
2014-08-20T07:28:00.677Z,22.1
2014-08-20T07:29:05.349Z,22.27
2014-08-20T07:30:10.039Z,22.44
2014-08-20T07:31:14.729Z,22.44
2014-08-20T07:32:19.700Z,21.89
2014-08-20T07:33:24.687Z,21.47
2014-08-20T07:34:29.673Z,21.72
2014-08-20T07:35:34.643Z,21.99
2014-08-20T07:36:39.333Z,22.12
2014-08-20T07:37:44.023Z,22.01
2014-08-20T07:38:48.993Z,22.05
2014-08-20T07:39:53.683Z,22.27
2014-08-20T07:40:58.372Z,22.24
2014-08-20T07:42:03.062Z,22.28
2014-08-20T07:43:07.751Z,22.35
2014-08-20T07:44:12.441Z,22.52
2014-08-20T07:45:17.130Z,22.78
2014-08-20T07:46:21.820Z,22.36
2014-08-20T07:47:26.806Z,22.37
2014-08-20T07:48:31.496Z,22.26
2014-08-20T07:49:36.170Z,22.27
2014-08-20T07:50:40.860Z,22.48
2014-08-20T07:51:45.550Z,22.4
2014-08-20T07:52:50.223Z,22.31
2014-08-20T07:53:54.913Z,21.87
2014-08-20T07:54:59.587Z,21.9
2014-08-20T07:56:04.573Z,22.22
2014-08-20T07:57:09.262Z,22.42
2014-08-20T07:58:13.937Z,22.38
2014-08-20T07:59:18.923Z,22.39
2014-08-20T08:00:23.908Z,22.05
2014-08-20T08:01:28.582Z,21.54
2014-08-20T08:02:33.585Z,21.53
2014-08-20T08:03:38.258Z,21.42
2014-08-20T08:04:43.262Z,21.94
2014-08-20T08:05:47.937Z,22
2014-08-20T08:06:53.220Z,21.45
2014-08-20T08:07:58.207Z,21.71
2014-08-20T08:09:02.881Z,22.39
2014-08-20T08:10:07.570Z,23.22
2014-08-20T08:11:12.260Z,23.55
2014-08-20T08:12:16.933Z,23.72
2014-08-20T08:13:21.623Z,23.42
2014-08-20T08:14:26.609Z,23.34
2014-08-20T08:15:31.299Z,23.63
2014-08-20T08:16:36.285Z,23.47
2014-08-20T08:17:40.959Z,23.36
2014-08-20T08:18:45.650Z,22.54
2014-08-20T08:19:50.636Z,22.78
2014-08-20T08:20:55.310Z,23.03
2014-08-20T08:21:59.999Z,22.3
2014-08-20T08:23:04.985Z,22.54
2014-08-20T08:24:09.955Z,22.75
2014-08-20T08:25:14.645Z,22.87
2014-08-20T08:26:19.334Z,22.86
2014-08-20T08:27:24.008Z,23.01
2014-08-20T08:28:28.995Z,23.06
2014-08-20T08:29:33.684Z,23.18
2014-08-20T08:30:38.358Z,22.88
2014-08-20T08:31:43.079Z,22.7
2014-08-20T08:32:47.753Z,21.97
2014-08-20T08:33:52.740Z,22.24
2014-08-20T08:34:57.429Z,22.37
2014-08-20T08:36:02.119Z,22.06
2014-08-20T08:37:07.104Z,21.39
2014-08-20T08:38:12.076Z,21.96
2014-08-20T08:39:16.765Z,21.39
2014-08-20T08:40:21.736Z,21.62
2014-08-20T08:41:26.441Z,21.73
2014-08-20T08:42:31.411Z,22.28
2014-08-20T08:43:36.101Z,22.31
2014-08-20T08:44:41.089Z,21.79
2014-08-20T08:45:46.076Z,21.86
2014-08-20T08:46:50.750Z,21.98
2014-08-20T08:47:55.439Z,22.02
2014-08-20T08:49:00.425Z,22.28
2014-08-20T08:50:05.396Z,21.78
2014-08-20T08:51:10.086Z,21.93
2014-08-20T08:52:14.759Z,22.16
2014-08-20T08:53:19.450Z,21.8
2014-08-20T08:54:24.138Z,22.1
2014-08-20T08:55:28.844Z,21.94
2014-08-20T08:56:33.517Z,21.62
2014-08-20T08:57:38.208Z,21.74
2014-08-20T08:58:42.896Z,21.96
2014-08-20T08:59:47.868Z,21.91
2014-08-20T09:00:51.917Z,21.59
2014-08-20T09:01:56.591Z,21.96
2014-08-20T09:03:01.279Z,22.14
2014-08-20T09:04:05.970Z,22.05
2014-08-20T09:05:10.644Z,22.34
2014-08-20T09:06:15.332Z,22.48
2014-08-20T09:07:20.006Z,22.39
2014-08-20T09:08:24.697Z,22.54
2014-08-20T09:09:29.386Z,21.95
2014-08-20T09:10:34.372Z,21.56
2014-08-20T09:11:39.047Z,22.06
2014-08-20T09:12:43.737Z,21.51
2014-08-20T09:13:48.708Z,21.5
2014-08-20T09:14:53.694Z,21.73
2014-08-20T09:15:58.384Z,22.19
2014-08-20T09:17:03.371Z,22.33
2014-08-20T09:18:08.341Z,22.42
2014-08-20T09:19:13.030Z,22.19
2014-08-20T09:20:17.720Z,21.8
2014-08-20T09:21:22.395Z,22.34
2014-08-20T09:22:27.381Z,22.66
2014-08-20T09:23:32.367Z,22.3
2014-08-20T09:24:37.056Z,22.35
2014-08-20T09:25:42.028Z,21.86
2014-08-20T09:26:46.717Z,22.26
2014-08-20T09:27:51.391Z,22.43
2014-08-20T09:28:56.080Z,22.24
2014-08-20T09:30:00.754Z,22.62
2014-08-20T09:31:05.444Z,21.74
2014-08-20T09:32:10.118Z,22.25
2014-08-20T09:33:14.807Z,22.62
2014-08-20T09:34:19.481Z,22.33
2014-08-20T09:35:24.171Z,22.49
2014-08-20T09:36:28.844Z,22.39
2014-08-20T09:37:33.534Z,22.64
2014-08-20T09:38:38.223Z,23.16
2014-08-20T09:39:42.914Z,22.86
2014-08-20T09:40:47.587Z,22.76
2014-08-20T09:41:52.276Z,22.9
2014-08-20T09:42:56.967Z,22.36
2014-08-20T09:44:01.655Z,22.15
2014-08-20T09:45:06.346Z,21.7
2014-08-20T09:46:11.332Z,21.82
2014-08-20T09:47:16.006Z,22.15
2014-08-20T09:48:20.695Z,22.37
2014-08-20T09:49:25.368Z,22.76
2014-08-20T09:50:30.059Z,22.7
2014-08-20T09:51:34.060Z,22.8
2014-08-20T09:52:38.735Z,22.6
2014-08-20T09:53:43.423Z,22.34
2014-08-20T09:54:48.098Z,22.61
2014-08-20T09:55:53.380Z,22.62
2014-08-20T09:56:58.367Z,22.06
2014-08-20T09:58:03.089Z,22.24
2014-08-20T09:59:08.075Z,22.52
2014-08-20T10:00:13.060Z,22.44
2014-08-20T10:01:18.048Z,22.2
2014-08-20T10:02:23.035Z,21.74
2014-08-20T10:03:27.726Z,21.86
2014-08-20T10:04:32.414Z,22.13
2014-08-20T10:05:37.089Z,22.24
2014-08-20T10:06:41.778Z,22.4
2014-08-20T10:07:46.452Z,22.24
2014-08-20T10:08:51.142Z,22.02
2014-08-20T10:09:55.815Z,22.11
2014-08-20T10:11:00.505Z,22.1
2014-08-20T10:12:05.492Z,22.24
2014-08-20T10:13:10.165Z,21.88
2014-08-20T10:14:14.855Z,22.36
2014-08-20T10:15:19.544Z,22.38
2014-08-20T10:16:24.514Z,21.94
2014-08-20T10:17:29.219Z,21.9
2014-08-20T10:18:33.909Z,22.2
2014-08-20T10:19:38.880Z,22.4
2014-08-20T10:20:43.569Z,22.29
2014-08-20T10:21:48.244Z,22.44
2014-08-20T10:22:53.230Z,22.24
2014-08-20T10:23:57.919Z,22.16
2014-08-20T10:25:01.891Z,21.62
2014-08-20T10:26:06.581Z,21.89
2014-08-20T10:27:11.552Z,22.18
2014-08-20T10:28:16.241Z,21.01
2014-08-20T10:29:21.228Z,21.41
2014-08-20T10:30:25.902Z,21.83
2014-08-20T10:31:30.591Z,21.62
2014-08-20T10:32:35.562Z,22.01
2014-08-20T10:33:40.251Z,21.77
2014-08-20T10:34:44.941Z,22.15
2014-08-20T10:35:49.615Z,22.11
2014-08-20T10:36:54.304Z,22.04
2014-08-20T10:37:59.292Z,22.32
2014-08-20T10:39:03.964Z,22.5
2014-08-20T10:40:08.654Z,22.48
2014-08-20T10:41:13.343Z,22.63
2014-08-20T10:42:18.017Z,22.68
2014-08-20T10:43:22.707Z,22.67
2014-08-20T10:44:27.678Z,22.86
2014-08-20T10:45:32.367Z,23.12
2014-08-20T10:46:37.057Z,23.06
2014-08-20T10:47:41.730Z,22.76
2014-08-20T10:48:46.420Z,22.66
2014-08-20T10:49:51.406Z,22.8
2014-08-20T10:50:56.080Z,22.71
2014-08-20T10:52:01.068Z,22.66
2014-08-20T10:53:06.053Z,22.54
2014-08-20T10:54:10.743Z,22.61
2014-08-20T10:55:15.417Z,23.06
2014-08-20T10:56:20.107Z,22.76
2014-08-20T10:57:24.780Z,22.6
2014-08-20T10:58:29.470Z,22.34
2014-08-20T10:59:34.457Z,22.26
2014-08-20T11:00:39.146Z,21.9
2014-08-20T11:01:43.820Z,21.88
2014-08-20T11:02:48.509Z,22.17
2014-08-20T11:03:53.199Z,22.34
2014-08-20T11:04:57.873Z,22.36
2014-08-20T11:06:02.859Z,22.41
2014-08-20T11:07:07.550Z,22.72
2014-08-20T11:08:12.535Z,22.94
2014-08-20T11:09:17.209Z,22.44
2014-08-20T11:10:22.196Z,22.67
2014-08-20T11:11:26.886Z,22.88
2014-08-20T11:12:31.575Z,22.8
2014-08-20T11:13:36.249Z,22.57
2014-08-20T11:14:40.939Z,22.94
2014-08-20T11:15:45.613Z,23.04
2014-08-20T11:16:50.599Z,23.12
2014-08-20T11:17:55.288Z,22.8
2014-08-20T11:18:59.998Z,22.83
2014-08-20T11:20:04.728Z,22.8
2014-08-20T11:21:09.442Z,22.86
2014-08-20T11:22:14.510Z,22.98
2014-08-20T11:23:19.217Z,23.02
2014-08-20T11:24:23.903Z,22.62
2014-08-20T11:25:28.610Z,23.24
2014-08-20T11:26:33.313Z,23.4
2014-08-20T11:27:38.000Z,23.35
2014-08-20T11:28:42.696Z,23.13
2014-08-20T11:29:47.688Z,23.22
2014-08-20T11:30:52.383Z,23.2
2014-08-20T11:31:57.109Z,22.9
2014-08-20T11:33:01.803Z,22.39
2014-08-20T11:34:06.479Z,22.5
2014-08-20T11:35:11.169Z,22.98
2014-08-20T11:36:16.159Z,22.28
2014-08-20T11:37:20.835Z,22.23
2014-08-20T11:38:25.525Z,22.22
2014-08-20T11:39:30.200Z,21.7
2014-08-20T11:40:34.889Z,22.26
2014-08-20T11:41:39.862Z,22.6
2014-08-20T11:42:44.553Z,22.4
2014-08-20T11:43:49.538Z,22.43
2014-08-20T11:44:54.212Z,22.76
2014-08-20T11:45:58.902Z,22.68
2014-08-20T11:47:03.888Z,22.93
2014-08-20T11:48:08.578Z,22.87
2014-08-20T11:49:13.565Z,22.16
2014-08-20T11:50:18.550Z,22.4
2014-08-20T11:51:23.225Z,22.1
2014-08-20T11:52:27.914Z,21.56
2014-08-20T11:53:32.588Z,21.66
2014-08-20T11:54:37.575Z,22.38
2014-08-20T11:55:42.561Z,22.61
2014-08-20T11:56:47.236Z,22.21
2014-08-20T11:57:51.924Z,21.92
2014-08-20T11:58:56.599Z,21.86
2014-08-20T12:00:01.288Z,22.44
2014-08-20T12:01:05.963Z,22.62
2014-08-20T12:02:10.651Z,22.83
2014-08-20T12:03:15.325Z,22.76
2014-08-20T12:04:20.016Z,22.72
2014-08-20T12:05:24.689Z,22.5
2014-08-20T12:06:29.379Z,22.73
2014-08-20T12:07:34.068Z,23.04
2014-08-20T12:08:38.758Z,23.34
2014-08-20T12:09:43.744Z,23.18
2014-08-20T12:10:48.418Z,22.64
2014-08-20T12:11:53.108Z,22.99
2014-08-20T12:12:58.078Z,23.31
2014-08-20T12:14:03.065Z,22.83
2014-08-20T12:15:07.754Z,23.2
2014-08-20T12:16:12.428Z,23.24
2014-08-20T12:17:17.118Z,23.64
2014-08-20T12:18:22.104Z,23.59
2014-08-20T12:19:26.778Z,23.48
2014-08-20T12:20:31.467Z,22.68
2014-08-20T12:21:36.173Z,22.95
2014-08-20T12:22:41.159Z,23.24
2014-08-20T12:23:45.848Z,23.18
2014-08-20T12:24:50.525Z,23.58
2014-08-20T12:25:55.214Z,23.49
2014-08-20T12:26:59.919Z,23.1
2014-08-20T12:28:04.608Z,23.07
2014-08-20T12:29:09.298Z,23.11
2014-08-20T12:30:14.284Z,23.33
2014-08-20T12:31:19.271Z,23.33
2014-08-20T12:32:23.945Z,23.19
2014-08-20T12:33:28.634Z,23.08
2014-08-20T12:34:33.620Z,23.34
2014-08-20T12:35:38.294Z,23.27
2014-08-20T12:36:43.281Z,23.16
2014-08-20T12:37:47.970Z,23.31
2014-08-20T12:38:52.941Z,23.51
2014-08-20T12:39:57.630Z,23.61
2014-08-20T12:41:02.304Z,23.8
2014-08-20T12:42:06.994Z,23.87
2014-08-20T12:43:11.683Z,24.04
2014-08-20T12:44:16.357Z,23.68
2014-08-20T12:45:21.048Z,23.98
2014-08-20T12:46:26.033Z,23.83
2014-08-20T12:47:30.707Z,23.77
2014-08-20T12:48:35.396Z,23.93
2014-08-20T12:49:40.383Z,23.8
2014-08-20T12:50:45.072Z,23.98
2014-08-20T12:51:50.059Z,23.94
2014-08-20T12:52:54.735Z,24.18
2014-08-20T12:53:59.721Z,24.29
2014-08-20T12:55:04.410Z,24.1
2014-08-20T12:56:09.397Z,24.01
2014-08-20T12:57:14.071Z,24.14
2014-08-20T12:58:18.759Z,24.04
2014-08-20T12:59:23.433Z,24.07
2014-08-20T13:00:28.123Z,23.96
2014-08-20T13:01:32.812Z,23.61
2014-08-20T13:02:37.798Z,23.48
2014-08-20T13:03:42.472Z,23.52
2014-08-20T13:04:47.163Z,23.44
2014-08-20T13:05:51.852Z,23.49
2014-08-20T13:06:56.526Z,23.38
2014-08-20T13:08:01.513Z,23.46
2014-08-20T13:09:06.202Z,23.25
2014-08-20T13:10:10.892Z,23.39
2014-08-20T13:11:15.581Z,23.32
2014-08-20T13:12:20.270Z,23.25
2014-08-20T13:13:24.944Z,23.38
2014-08-20T13:14:29.931Z,23.17
2014-08-20T13:15:34.620Z,23.21
2014-08-20T13:16:39.591Z,23.13
2014-08-20T13:17:44.281Z,22.35
2014-08-20T13:18:48.970Z,22.68
2014-08-20T13:19:53.644Z,22.62
2014-08-20T13:20:58.631Z,22.29
2014-08-20T13:22:03.321Z,22.34
2014-08-20T13:23:07.996Z,22.51
2014-08-20T13:24:12.982Z,22.42
2014-08-20T13:25:17.968Z,22.25
2014-08-20T13:26:22.939Z,21.35
2014-08-20T13:27:27.629Z,21.2
2014-08-20T13:28:32.318Z,21.7
2014-08-20T13:29:36.992Z,21.9
2014-08-20T13:30:42.274Z,21.89
2014-08-20T13:31:46.965Z,21.92
2014-08-20T13:32:51.639Z,22.16
2014-08-20T13:33:56.328Z,22.12
2014-08-20T13:35:01.033Z,22.04
2014-08-20T13:36:05.723Z,22.17
2014-08-20T13:37:10.397Z,22.04
2014-08-20T13:38:15.086Z,21.96
2014-08-20T13:39:20.073Z,22.02
2014-08-20T13:40:24.746Z,22.04
2014-08-20T13:41:29.436Z,22.03
2014-08-20T13:42:34.125Z,21.98
2014-08-20T13:43:38.800Z,21.96
2014-08-20T13:44:43.098Z,21.83
2014-08-20T13:45:47.788Z,21.87
2014-08-20T13:46:52.758Z,21.97
2014-08-20T13:47:57.449Z,22
2014-08-20T13:49:02.138Z,21.99
2014-08-20T13:50:06.844Z,21.86
2014-08-20T13:51:11.829Z,21.86
2014-08-20T13:52:16.815Z,21.82
2014-08-20T13:53:21.489Z,22.07
2014-08-20T13:54:26.179Z,22.09
2014-08-20T13:55:31.149Z,22.09
2014-08-20T13:56:35.841Z,22.07
2014-08-20T13:57:40.515Z,22.11